• Join FlightAware (Why Join?)
  • Login
  • US Flag 
08:11AM EDT


 

Airport Tracker/Info


-or-


 

Live Flight TrackerFlight Track Log ✈ N244A ✈ 12-Sep-2013 ✈ KFXE - KTEB

Flight Track Log - Related Links

Times and Time Zones

All times are in EDT time to prevent confusion due to time zone crossing. See the N244A flight status page for this flight to view local times or setup timezone preferences in your user account.

Time Position Orientation Groundspeed Altitude Reporting Facility
EDT Latitude Longitude Course Direction KTS MPH feet Rate Location/Type
12:41PM 26.1978 -80.1586 33° Northeast 141 162 700  Level Miami Center
12:41PM 26.2253 -80.1386 33° Northeast 164 189 1,600 1,560 Climbing Miami Center
12:42PM 26.2397 -80.1528 319° Northwest 212 244 2,500 1,860 Climbing Miami Center
12:42PM 26.2725 -80.1744 329° Northwest 248 285 3,500 2,940 Climbing Miami Center
12:43PM 26.3258 -80.2200 323° Northwest 293 337 6,800 3,000 Climbing Miami Center
12:44PM 26.3853 -80.2681 324° Northwest 293 337 9,600 2,820 Climbing Miami Center
12:45PM 26.4611 -80.3283 325° Northwest 301 346 12,500 2,580 Climbing Miami Center
12:46PM 26.5331 -80.3814 327° Northwest 330 380 14,800 2,340 Climbing Miami Center
12:47PM 26.6231 -80.4517 325° Northwest 346 398 17,200 2,100 Climbing Miami Center
12:48PM 26.7008 -80.5167 323° Northwest 371 427 19,100 1,920 Climbing Miami Center
12:49PM 26.7892 -80.5800 327° Northwest 381 438 21,100 1,740 Climbing Miami Center
12:50PM 26.8878 -80.6389 332° Northwest 381 438 22,600 1,680 Climbing Miami Center
12:51PM 26.9842 -80.7003 330° Northwest 391 450 24,500 1,500 Climbing Miami Center
12:52PM 27.0853 -80.7503 336° Northwest 396 456 25,700 1,140 Climbing Miami Center
12:53PM 27.1922 -80.8078 334° Northwest 403 464 26,800 1,140 Climbing Miami Center
12:54PM 27.2994 -80.8628 335° Northwest 414 476 28,000 1,080 Climbing Miami Center
12:55PM 27.4167 -80.9231 335° Northwest 419 482 29,000 900 Climbing Miami Center
12:56PM 27.5297 -80.9831 335° Northwest 430 495 29,800 840 Climbing Miami Center
12:57PM 27.6431 -81.0364 337° Northwest 441 507 30,700 780 Climbing Miami Center
12:58PM 27.7436 -81.0917 334° Northwest 441 507 31,400 1,200 Climbing Miami Center
12:59PM 27.8711 -81.1575 335° Northwest 441 507 33,200 1,200 Climbing Miami Center
01:00PM 27.9719 -81.2014 339° North 436 502 33,900 960 Climbing Miami Center
01:01PM 28.0903 -81.2294 348° North 431 496 35,200 1,020 Climbing Miami Center
01:02PM 28.2206 -81.2603 348° North 431 496 36,000 600 Climbing Miami Center
01:04PM 28.4242 -81.3158 347° North 421 484 37,000 300 Climbing Jacksonville Center
01:05PM 28.5475 -81.3517 346° North 426 490 37,000  Level Jacksonville Center
01:06PM 28.6608 -81.3950 341° North 437 503 37,000  Level Jacksonville Center
01:07PM 28.7825 -81.4475 339° North 448 516 37,000  Level Jacksonville Center
01:08PM 28.9019 -81.4956 341° North 448 516 37,000  Level Jacksonville Center
01:09PM 29.0236 -81.5414 342° North 448 516 37,000  Level Jacksonville Center
01:10PM 29.1450 -81.5872 342° North 448 516 37,000  Level Jacksonville Center
01:11PM 29.2728 -81.6403 340° North 448 516 37,000  Level Jacksonville Center
01:12PM 29.3964 -81.6817 344° North 448 516 37,000  Level Jacksonville Center
01:13PM 29.5158 -81.7183 345° North 448 516 37,000  Level Jacksonville Center
01:14PM 29.6353 -81.7647 341° North 448 516 37,000  Level Jacksonville Center
01:15PM 29.7506 -81.8136 340° North 443 510 37,000  Level Jacksonville Center
01:16PM 29.8678 -81.8556 343° North 444 511 37,000  Level Jacksonville Center
01:17PM 29.9911 -81.8758 352° North 436 502 37,000  Level Jacksonville Center
01:18PM 30.1058 -81.8744 North 441 507 37,000 -60 Level Jacksonville Center
01:19PM 30.2269 -81.8589 North 441 507 36,900  Descending Jacksonville Center
01:20PM 30.3475 -81.8142 18° North 435 501 37,000  Climbing Jacksonville Center
01:21PM 30.4808 -81.7717 15° North 440 506 37,000  Level Jacksonville Center
01:22PM 30.5869 -81.7392 15° North 451 519 37,000  Level Jacksonville Center
01:23PM 30.7078 -81.6989 16° North 451 519 37,000  Level Jacksonville Center
01:24PM 30.8264 -81.6589 16° North 446 513 37,000  Level Jacksonville Center
01:25PM 30.9450 -81.6183 16° North 446 513 37,000  Level Jacksonville Center
01:26PM 31.0636 -81.5781 16° North 446 513 37,000  Level Jacksonville Center
01:27PM 31.1842 -81.5350 17° North 440 506 37,000  Level Jacksonville Center
01:28PM 31.3050 -81.4969 15° North 440 506 37,000  Level Jacksonville Center
01:29PM 31.4214 -81.4489 19° North 429 494 37,000  Level Jacksonville Center
01:30PM 31.5417 -81.3789 26° Northeast 433 498 37,000  Level Jacksonville Center
01:31PM 31.6556 -81.3111 27° Northeast 451 519 37,000  Level Jacksonville Center
01:32PM 31.7572 -81.2531 26° Northeast 444 511 37,000  Level Jacksonville Center
01:33PM 31.8692 -81.1900 26° Northeast 451 519 37,000  Level Jacksonville Center
01:34PM 31.9850 -81.1242 26° Northeast 451 519 37,000  Level Jacksonville Center
01:35PM 32.1114 -81.0531 25° Northeast 451 519 37,000  Level Jacksonville Center
01:36PM 32.2150 -80.9919 27° Northeast 451 519 37,000  Level Jacksonville Center
01:37PM 32.3308 -80.9281 25° Northeast 456 525 37,000  Level Jacksonville Center
01:38PM 32.4447 -80.8617 26° Northeast 456 525 37,000  Level Jacksonville Center
01:39PM 32.5583 -80.7950 26° Northeast 456 525 37,000  Level Jacksonville Center
01:40PM 32.6742 -80.7258 27° Northeast 456 525 37,000  Level Jacksonville Center
01:41PM 32.7897 -80.6611 25° Northeast 461 531 37,000  Level Jacksonville Center
01:42PM 32.9075 -80.5939 26° Northeast 461 531 37,000  Level Jacksonville Center
01:43PM 33.0253 -80.5264 26° Northeast 466 536 37,000  Level Jacksonville Center
01:44PM 33.1431 -80.4589 26° Northeast 466 536 37,000  Level Jacksonville Center
01:45PM 33.2628 -80.3886 26° Northeast 467 537 37,000  Level Jacksonville Center
01:46PM 33.3803 -80.3181 27° Northeast 467 537 37,000  Level Jacksonville Center
01:47PM 33.4936 -80.2475 27° Northeast 462 532 37,000 -60 Level Jacksonville Center
01:48PM 33.6089 -80.1792 26° Northeast 462 532 36,900  Descending Jacksonville Center
01:49PM 33.7244 -80.1083 27° Northeast 462 532 37,000  Climbing Jacksonville Center
01:50PM 33.8394 -80.0372 27° Northeast 462 532 37,000  Level Jacksonville Center
01:51PM 33.9569 -79.9683 26° Northeast 462 532 37,000  Level Jacksonville Center
01:52PM 34.0742 -79.8992 26° Northeast 462 532 37,000 -60 Level Jacksonville Center
01:53PM 34.1872 -79.8300 27° Northeast 462 532 36,900  Descending Jacksonville Center
01:55PM 34.4103 -79.6925 27° Northeast 466 536 37,000  Climbing Washington Center
01:56PM 34.5253 -79.6228 27° Northeast 466 536 37,000  Level Washington Center
01:57PM 34.6425 -79.5528 26° Northeast 461 531 37,000  Level Washington Center
01:58PM 34.7575 -79.4800 27° Northeast 461 531 37,000  Level Washington Center
01:59PM 34.8744 -79.4097 26° Northeast 461 531 37,000  Level Washington Center
02:00PM 34.9894 -79.3364 28° Northeast 461 531 37,000  Level Washington Center
02:01PM 35.0808 -79.2822 26° Northeast 461 531 37,000  Level Washington Center
02:02PM 35.2192 -79.1947 27° Northeast 461 531 37,000  Level Washington Center
02:03PM 35.3275 -79.1281 27° Northeast 461 531 37,000  Level Washington Center
02:04PM 35.4531 -79.0522 26° Northeast 463 533 37,000  Level Washington Center
02:05PM 35.5550 -78.9875 27° Northeast 458 527 37,000  Level Washington Center
02:06PM 35.6697 -78.9183 26° Northeast 458 527 37,000  Level Washington Center
02:07PM 35.7886 -78.8414 28° Northeast 458 527 37,000  Level Washington Center
02:08PM 35.9031 -78.7692 27° Northeast 458 527 37,000  Level Washington Center
02:09PM 36.0219 -78.6994 25° Northeast 458 527 37,000  Level Washington Center
02:10PM 36.1425 -78.6347 23° Northeast 458 527 37,000  Level Washington Center
02:11PM 36.2569 -78.5669 26° Northeast 458 527 37,000  Level Washington Center
02:12PM 36.3775 -78.4994 24° Northeast 458 527 37,000  Level Washington Center
02:13PM 36.4936 -78.4339 24° Northeast 458 527 37,000  Level Washington Center
02:14PM 36.6122 -78.3658 25° Northeast 458 527 37,000  Level Washington Center
02:15PM 36.7222 -78.2997 26° Northeast 452 520 37,000  Level Washington Center
02:16PM 36.8364 -78.2339 25° Northeast 444 511 37,000  Level Washington Center
02:17PM 36.9547 -78.1597 27° Northeast 451 519 37,000  Level Washington Center
02:18PM 37.0686 -78.1011 22° Northeast 451 519 37,000  Level Washington Center
02:19PM 37.1850 -78.0294 26° Northeast 451 519 37,000  Level Washington Center
02:20PM 37.3031 -77.9600 25° Northeast 446 513 37,000  Level Washington Center
02:21PM 37.4192 -77.8931 25° Northeast 446 513 37,000  Level Washington Center
02:22PM 37.5353 -77.8231 26° Northeast 446 513 37,000  Level Washington Center
02:23PM 37.6411 -77.7292 35° Northeast 451 519 37,000  Level Washington Center
02:24PM 37.7472 -77.6325 36° Northeast 457 526 37,000  Level Washington Center
02:25PM 37.8531 -77.5353 36° Northeast 462 532 37,000 -660 Level Washington Center
02:26PM 37.9589 -77.4353 37° Northeast 462 532 35,700 -1,440 Descending Washington Center
02:27PM 38.0731 -77.3325 35° Northeast 464 534 34,200 -1,440 Descending Washington Center
02:28PM 38.1786 -77.2347 36° Northeast 458 527 32,900 -1,320 Descending Washington Center
02:29PM 38.2758 -77.1442 36° Northeast 465 535 31,700 -1,440 Descending Washington Center
02:30PM 38.3875 -77.0381 37° Northeast 465 535 30,100 -1,860 Descending Washington Center
02:31PM 38.4850 -76.9178 44° Northeast 460 529 28,000 -2,520 Descending Washington Center
02:32PM 38.5761 -76.7814 49° Northeast 477 549 25,200 -2,040 Descending Washington Center
02:33PM 38.6711 -76.6394 49° Northeast 500 575 24,000 -600 Descending Washington Center
02:34PM 38.7639 -76.5128 47° Northeast 505 581 24,000  Level Washington Center
02:35PM 38.8522 -76.3914 47° Northeast 486 559 24,000  Level Washington Center
02:36PM 38.9428 -76.2589 49° Northeast 481 554 24,000  Level Washington Center
02:37PM 39.0269 -76.1206 52° Northeast 487 560 24,000  Level Washington Center
02:38PM 39.1253 -75.9928 45° Northeast 492 566 24,000  Level Washington Center
02:39PM 39.2339 -75.8783 39° Northeast 492 566 24,000 -240 Level Washington Center
02:40PM 39.3361 -75.8222 23° Northeast 492 566 23,600 -2,100 Descending Washington Center
02:42PM 39.5667 -75.7167 19° North 425 489 18,400 -3,000 Descending Philadelphia TRACON
02:43PM 39.6667 -75.6667 21° North 406 467 15,500 -2,700 Descending Philadelphia TRACON
02:44PM 39.7667 -75.6167 21° North 411 473 13,000 -1,320 Descending Philadelphia TRACON
02:45PM 39.8667 -75.5500 27° Northeast 416 479 13,000  Level Philadelphia TRACON
02:46PM 39.9667 -75.4500 37° Northeast 424 488 13,000  Level Philadelphia TRACON
02:47PM 40.0500 -75.3500 43° Northeast 425 489 13,000  Level Philadelphia TRACON
02:48PM 40.1500 -75.2833 27° Northeast 338 389 13,000 -720 Level Philadelphia TRACON
02:49PM 40.2167 -75.2167 37° Northeast 322 371 11,600 -1,500 Descending Philadelphia TRACON
02:51PM 40.3667 -75.0500 40° Northeast 329 379 8,500 -1,560 Descending New York TRACON
02:52PM 40.4167 -74.9667 52° Northeast 313 360 7,000 -1,440 Descending New York TRACON
02:53PM 40.4833 -74.8833 44° Northeast 295 339 5,600 -1,440 Descending New York TRACON
02:54PM 40.5333 -74.8167 45° Northeast 304 350 4,200 -900 Descending New York TRACON
02:55PM 40.6000 -74.7333 43° Northeast 298 343 4,000 -120 Descending New York TRACON
02:56PM 40.6667 -74.6833 30° Northeast 283 326 4,000  Level New York TRACON
02:57PM 40.7500 -74.6333 24° Northeast 295 339 4,000  Level New York TRACON
02:58PM 40.8000 -74.6000 27° Northeast 299 344 4,000 -540 Level New York TRACON
02:59PM 40.8833 -74.5500 24° Northeast 299 344 3,000 -480 Descending New York TRACON
03:00PM 40.9667 -74.5000 24° Northeast 300 345 3,000  Level New York TRACON
03:01PM 41.0500 -74.4500 24° Northeast 300 345 3,100  Climbing New York TRACON
03:02PM 41.0667 -74.3500 78° East 302 348 3,000 -60 Descending New York TRACON
03:03PM 41.0500 -74.2333 101° East 289 333 3,000  Level New York TRACON
03:04PM 41.0333 -74.1333 102° East 279 321 3,000 -180 Level New York TRACON
03:05PM 41.0167 -74.0667 108° East 209 241 2,700 -540 Descending New York TRACON
03:06PM 40.9833 -74.0500 159° South 162 186 2,000 -600 Descending New York TRACON
03:07PM 40.9333 -74.0500 180° South 155 178 1,600 -600 Descending New York TRACON
03:08PM 40.9000 -74.0500 180° South 133 153 900 -660 Descending New York TRACON
03:09PM 40.8667 -74.0667 201° Southwest 117 135 300 -600 Descending New York TRACON